createdAt,value
2022-12-18T00:00:14.519Z,0
2022-12-18T00:01:13.522Z,0
2022-12-18T00:02:13.772Z,0.109
2022-12-18T00:03:27.850Z,0
2022-12-18T00:04:13.702Z,0
2022-12-18T00:05:13.777Z,0
2022-12-18T00:06:13.754Z,0
2022-12-18T00:07:13.878Z,0
2022-12-18T00:08:13.674Z,0
2022-12-18T00:09:13.807Z,0
2022-12-18T00:10:15.504Z,0.109
2022-12-18T00:11:13.717Z,0.109
2022-12-18T00:13:13.642Z,0
2022-12-18T00:14:13.322Z,0
2022-12-18T00:15:13.836Z,0
2022-12-18T00:16:13.467Z,0
2022-12-18T00:17:14.573Z,0.109
2022-12-18T00:18:16.101Z,0
2022-12-18T00:19:13.567Z,0
2022-12-18T00:20:14.437Z,0
2022-12-18T00:21:14.263Z,0
2022-12-18T00:22:13.845Z,0.109
2022-12-18T00:23:13.629Z,0
2022-12-18T00:24:13.506Z,0
2022-12-18T00:25:13.420Z,0
2022-12-18T00:26:13.877Z,0
2022-12-18T00:27:13.677Z,0
2022-12-18T00:28:14.203Z,0
2022-12-18T00:29:13.766Z,0
2022-12-18T00:30:13.673Z,0
2022-12-18T00:31:14.200Z,0
2022-12-18T00:32:13.871Z,0
2022-12-18T00:33:14.344Z,0
2022-12-18T00:34:13.809Z,0
2022-12-18T00:35:13.536Z,0
2022-12-18T00:36:14.211Z,0.109
2022-12-18T00:37:19.737Z,0
2022-12-18T00:38:13.860Z,0.109
2022-12-18T00:39:13.789Z,0
2022-12-18T00:40:13.953Z,0
2022-12-18T00:41:13.639Z,0
2022-12-18T00:42:13.802Z,0
2022-12-18T00:43:13.351Z,0
2022-12-18T00:44:14.147Z,0
2022-12-18T00:45:14.326Z,0
2022-12-18T00:46:14.306Z,0
2022-12-18T00:47:13.767Z,0
2022-12-18T00:48:13.710Z,0
2022-12-18T00:49:13.485Z,0
2022-12-18T00:50:13.342Z,0
2022-12-18T00:51:13.777Z,0
2022-12-18T00:52:13.480Z,0
2022-12-18T00:53:14.186Z,0
2022-12-18T00:54:13.812Z,0
2022-12-18T00:55:13.735Z,0
2022-12-18T00:56:13.694Z,0
2022-12-18T00:57:13.894Z,0
2022-12-18T00:58:13.697Z,0
2022-12-18T00:59:13.315Z,0
2022-12-18T01:00:14.840Z,0
2022-12-18T01:01:15.789Z,0
2022-12-18T01:03:13.577Z,0
2022-12-18T01:04:14.298Z,0
2022-12-18T01:05:14.230Z,0
2022-12-18T01:06:13.852Z,0
2022-12-18T01:07:13.300Z,0
2022-12-18T01:08:13.748Z,0
2022-12-18T01:09:14.166Z,0
2022-12-18T01:10:13.561Z,0
2022-12-18T01:11:14.112Z,0
2022-12-18T01:12:13.522Z,0
2022-12-18T01:13:13.694Z,0
2022-12-18T01:14:13.104Z,0
2022-12-18T01:15:13.695Z,0
2022-12-18T01:16:13.969Z,0
2022-12-18T01:17:13.604Z,0
2022-12-18T01:18:14.026Z,0.109
2022-12-18T01:19:13.454Z,0
2022-12-18T01:20:13.947Z,0
2022-12-18T01:21:13.799Z,0
2022-12-18T01:22:13.248Z,0
2022-12-18T01:23:13.662Z,0
2022-12-18T01:24:14.050Z,0
2022-12-18T01:25:13.372Z,0.239
2022-12-18T01:26:13.647Z,0
2022-12-18T01:27:13.688Z,0
2022-12-18T01:28:13.754Z,0
2022-12-18T01:29:13.892Z,0
2022-12-18T01:30:14.091Z,0.219
2022-12-18T01:31:13.533Z,0
2022-12-18T01:32:13.664Z,0
2022-12-18T01:33:13.386Z,0.219
2022-12-18T01:34:13.157Z,0.109
2022-12-18T01:35:13.639Z,0.109
2022-12-18T01:36:13.904Z,0
2022-12-18T01:37:13.234Z,0
2022-12-18T01:38:13.000Z,0
2022-12-18T01:39:13.977Z,0.109
2022-12-18T01:40:13.899Z,0
2022-12-18T01:41:12.932Z,0
2022-12-18T01:42:14.073Z,0
2022-12-18T01:43:13.252Z,0
2022-12-18T01:44:13.748Z,0
2022-12-18T01:45:13.414Z,0
2022-12-18T01:46:13.311Z,0
2022-12-18T01:47:13.801Z,0.109
2022-12-18T01:48:13.856Z,0.109
2022-12-18T01:49:13.766Z,0
2022-12-18T01:50:13.162Z,0.219
2022-12-18T01:51:13.519Z,0
2022-12-18T01:52:13.697Z,0
2022-12-18T01:53:13.977Z,0
2022-12-18T01:54:14.076Z,0
2022-12-18T01:55:13.402Z,0
2022-12-18T01:56:13.238Z,0
2022-12-18T01:57:13.405Z,0
2022-12-18T01:58:13.628Z,0.219
2022-12-18T01:59:13.945Z,0.560
2022-12-18T02:00:14.780Z,0.109
2022-12-18T02:01:14.259Z,0.109
2022-12-18T02:02:14.162Z,0.219
2022-12-18T02:03:13.774Z,0.219
2022-12-18T02:04:13.270Z,0.219
2022-12-18T02:05:13.741Z,0.219
2022-12-18T02:06:13.852Z,0.340
2022-12-18T02:07:13.108Z,0
2022-12-18T02:08:13.154Z,0.340
2022-12-18T02:09:13.465Z,0.219
2022-12-18T02:10:13.828Z,0.109
2022-12-18T02:11:13.934Z,0.109
2022-12-18T02:12:18.057Z,0.340
2022-12-18T02:13:13.011Z,0.109
2022-12-18T02:14:13.041Z,0.219
2022-12-18T02:15:13.141Z,0.109
2022-12-18T02:16:13.230Z,0
2022-12-18T02:17:13.596Z,0.449
2022-12-18T02:18:13.669Z,0.219
2022-12-18T02:19:13.884Z,0.219
2022-12-18T02:20:13.252Z,0
2022-12-18T02:21:13.314Z,0
2022-12-18T02:22:13.789Z,0.109
2022-12-18T02:23:13.985Z,0.109
2022-12-18T02:24:13.329Z,0
2022-12-18T02:25:14.040Z,0
2022-12-18T02:26:13.353Z,0.109
2022-12-18T02:27:13.623Z,0
2022-12-18T02:28:14.133Z,0
2022-12-18T02:29:13.393Z,0
2022-12-18T02:30:13.815Z,0
2022-12-18T02:31:13.418Z,0
2022-12-18T02:32:13.568Z,0
2022-12-18T02:33:13.754Z,0
2022-12-18T02:34:13.824Z,0
2022-12-18T02:35:14.071Z,0
2022-12-18T02:36:13.118Z,0
2022-12-18T02:37:13.320Z,0
2022-12-18T02:38:13.386Z,0
2022-12-18T02:39:13.624Z,0
2022-12-18T02:40:13.687Z,0
2022-12-18T02:41:13.311Z,0
2022-12-18T02:42:13.684Z,0
2022-12-18T02:43:14.137Z,0
2022-12-18T02:44:13.875Z,0
2022-12-18T02:45:13.487Z,0.100
2022-12-18T02:46:14.011Z,0.109
2022-12-18T02:47:13.534Z,0.119
2022-12-18T02:48:13.699Z,0
2022-12-18T02:49:13.724Z,0.119
2022-12-18T02:50:13.956Z,0
2022-12-18T02:51:13.896Z,0
2022-12-18T02:52:13.375Z,0.109
2022-12-18T02:53:13.623Z,0
2022-12-18T02:54:13.964Z,0
2022-12-18T02:55:13.243Z,0
2022-12-18T02:56:13.440Z,0
2022-12-18T02:57:13.533Z,0.109
2022-12-18T02:58:13.744Z,0
2022-12-18T02:59:13.105Z,0
2022-12-18T03:00:14.123Z,0.109
2022-12-18T03:01:13.903Z,0
2022-12-18T03:02:13.617Z,0
2022-12-18T03:03:13.291Z,0
2022-12-18T03:04:13.816Z,0
2022-12-18T03:05:14.119Z,0
2022-12-18T03:06:13.207Z,0.109
2022-12-18T03:07:13.295Z,0
2022-12-18T03:08:13.323Z,0.109
2022-12-18T03:09:13.884Z,0
2022-12-18T03:10:13.850Z,0
2022-12-18T03:11:14.080Z,0
2022-12-18T03:12:13.290Z,0
2022-12-18T03:13:13.419Z,0
2022-12-18T03:14:13.585Z,0
2022-12-18T03:15:17.587Z,0
2022-12-18T03:16:13.121Z,0
2022-12-18T03:17:13.535Z,0
2022-12-18T03:18:13.510Z,0
2022-12-18T03:19:13.641Z,0
2022-12-18T03:20:13.951Z,0.219
2022-12-18T03:21:13.079Z,0.219
2022-12-18T03:22:13.396Z,0.109
2022-12-18T03:23:13.575Z,0.109
2022-12-18T03:24:13.495Z,0.340
2022-12-18T03:25:14.027Z,0.109
2022-12-18T03:26:13.367Z,0
2022-12-18T03:27:13.718Z,0
2022-12-18T03:28:13.646Z,0
2022-12-18T03:29:14.076Z,0
2022-12-18T03:30:13.433Z,0
2022-12-18T03:31:13.594Z,0
2022-12-18T03:32:13.552Z,0
2022-12-18T03:33:13.864Z,0
2022-12-18T03:34:14.068Z,0
2022-12-18T03:35:13.504Z,0
2022-12-18T03:36:13.348Z,0
2022-12-18T03:37:13.406Z,0
2022-12-18T03:38:13.656Z,0
2022-12-18T03:39:13.741Z,0
2022-12-18T03:40:13.866Z,0
2022-12-18T03:41:13.245Z,0
2022-12-18T03:42:13.333Z,0.109
2022-12-18T03:43:13.623Z,0
2022-12-18T03:44:13.755Z,0.109
2022-12-18T03:45:14.422Z,0
2022-12-18T03:46:13.991Z,0
2022-12-18T03:47:13.597Z,0
2022-12-18T03:48:13.727Z,0
2022-12-18T03:49:13.917Z,0.109
2022-12-18T03:50:14.023Z,0
2022-12-18T03:51:13.023Z,0.109
2022-12-18T03:52:13.231Z,0.340
2022-12-18T03:53:13.329Z,0.340
2022-12-18T03:54:13.398Z,0.340
2022-12-18T03:55:13.317Z,0.109
2022-12-18T03:56:13.316Z,0.109
2022-12-18T03:57:13.352Z,0.109
2022-12-18T03:58:13.402Z,0.340
2022-12-18T03:59:13.494Z,0
2022-12-18T04:00:14.219Z,0.219
2022-12-18T04:01:13.612Z,0
2022-12-18T04:02:13.865Z,0
2022-12-18T04:03:13.380Z,0.340
2022-12-18T04:04:13.824Z,0.109
2022-12-18T04:05:14.191Z,0
2022-12-18T04:06:13.224Z,0.409
2022-12-18T04:07:13.555Z,0.219
2022-12-18T04:08:13.496Z,0.109
2022-12-18T04:09:13.560Z,0.219
2022-12-18T04:10:13.899Z,0
2022-12-18T04:11:13.720Z,0
2022-12-18T04:12:13.771Z,0.109
2022-12-18T04:13:13.287Z,0
2022-12-18T04:14:17.575Z,0
2022-12-18T04:15:14.141Z,0
2022-12-18T04:16:13.365Z,0
2022-12-18T04:17:13.441Z,0.100
2022-12-18T04:18:13.465Z,0
2022-12-18T04:19:13.564Z,0
2022-12-18T04:20:13.813Z,0.219
2022-12-18T04:21:14.365Z,0.109
2022-12-18T04:22:13.483Z,0.109
2022-12-18T04:23:13.483Z,0.449
2022-12-18T04:24:13.847Z,0.340
2022-12-18T04:25:14.181Z,0.340
2022-12-18T04:26:13.271Z,0.219
2022-12-18T04:27:13.584Z,0.219
2022-12-18T04:28:13.668Z,0.219
2022-12-18T04:29:13.020Z,0
2022-12-18T04:30:13.554Z,0.109
2022-12-18T04:31:14.047Z,0.109
2022-12-18T04:32:13.286Z,0.109
2022-12-18T04:33:13.696Z,0
2022-12-18T04:34:13.663Z,0.109
2022-12-18T04:35:14.079Z,0.109
2022-12-18T04:36:13.153Z,0.219
2022-12-18T04:37:13.348Z,0.109
2022-12-18T04:38:13.566Z,0.219
2022-12-18T04:39:13.967Z,0
2022-12-18T04:40:13.058Z,0
2022-12-18T04:41:13.247Z,0
2022-12-18T04:42:13.102Z,0.219
2022-12-18T04:43:21.587Z,0.219
2022-12-18T04:44:13.760Z,0.340
2022-12-18T04:45:22.265Z,0
2022-12-18T04:46:13.265Z,0.219
2022-12-18T04:47:22.001Z,0.449
2022-12-18T04:48:13.743Z,0.219
2022-12-18T04:49:13.801Z,0.109
2022-12-18T04:50:12.963Z,0.109
2022-12-18T04:51:13.093Z,0.219
2022-12-18T04:52:13.601Z,0
2022-12-18T04:53:13.754Z,0
2022-12-18T04:54:13.469Z,0.109
2022-12-18T04:55:13.747Z,0.340
2022-12-18T04:56:13.026Z,0
2022-12-18T04:57:13.191Z,0
2022-12-18T04:58:12.661Z,0
2022-12-18T04:59:13.792Z,0
2022-12-18T05:00:14.511Z,0
2022-12-18T05:01:14.128Z,0
2022-12-18T05:02:13.844Z,0
2022-12-18T05:03:13.750Z,0
2022-12-18T05:04:13.916Z,0
2022-12-18T05:05:13.422Z,0.109
2022-12-18T05:06:13.634Z,0.109
2022-12-18T05:07:12.992Z,0.340
2022-12-18T05:08:13.637Z,0.219
2022-12-18T05:09:14.093Z,0.219
2022-12-18T05:10:13.311Z,0.449
2022-12-18T05:11:13.436Z,0.340
2022-12-18T05:12:13.579Z,0.340
2022-12-18T05:13:13.738Z,0.340
2022-12-18T05:14:13.758Z,0.899
2022-12-18T05:15:14.120Z,0.449
2022-12-18T05:16:13.581Z,0.340
2022-12-18T05:17:14.146Z,0.680
2022-12-18T05:18:13.251Z,0.449
2022-12-18T05:19:13.462Z,0.340
2022-12-18T05:20:14.033Z,0.449
2022-12-18T05:21:13.583Z,0.680
2022-12-18T05:22:13.942Z,0.560
2022-12-18T05:23:13.372Z,0.449
2022-12-18T05:24:13.753Z,0.790
2022-12-18T05:25:14.185Z,0.680
2022-12-18T05:26:13.415Z,0.680
2022-12-18T05:27:13.406Z,0.449
2022-12-18T05:28:13.550Z,0.680
2022-12-18T05:29:13.624Z,0.219
2022-12-18T05:30:13.875Z,0.219
2022-12-18T05:31:13.327Z,0.449
2022-12-18T05:32:13.635Z,0.239
2022-12-18T05:33:13.999Z,0.519
2022-12-18T05:34:13.318Z,0.219
2022-12-18T05:35:14.094Z,0.610
2022-12-18T05:36:13.204Z,0.519
2022-12-18T05:37:13.824Z,0.490
2022-12-18T05:38:13.110Z,0.340
2022-12-18T05:39:13.205Z,0.100
2022-12-18T05:40:13.497Z,0.490
2022-12-18T05:41:13.931Z,0
2022-12-18T05:42:13.158Z,0.370
2022-12-18T05:43:17.944Z,0.340
2022-12-18T05:44:14.496Z,0.519
2022-12-18T05:45:14.137Z,0.490
2022-12-18T05:46:11.934Z,0.560
2022-12-18T05:47:13.908Z,0.109
2022-12-18T05:48:13.016Z,0.219
2022-12-18T05:49:13.224Z,0.560
2022-12-18T05:50:13.598Z,0.790
2022-12-18T05:51:14.082Z,0.680
2022-12-18T05:52:13.625Z,0.560
2022-12-18T05:53:14.098Z,0.340
2022-12-18T05:54:13.331Z,0.109
2022-12-18T05:55:14.112Z,0.680
2022-12-18T05:56:13.456Z,0.449
2022-12-18T05:57:13.960Z,0.219
2022-12-18T05:58:13.853Z,0.219
2022-12-18T05:59:13.131Z,0.560
2022-12-18T06:00:14.321Z,0.560
2022-12-18T06:01:14.336Z,0.219
2022-12-18T06:02:14.341Z,0.219
2022-12-18T06:03:13.847Z,0.109
2022-12-18T06:04:13.768Z,0.109
2022-12-18T06:05:13.338Z,0
2022-12-18T06:06:13.752Z,0
2022-12-18T06:07:13.947Z,0
2022-12-18T06:08:13.041Z,0
2022-12-18T06:09:13.659Z,0
2022-12-18T06:10:14.252Z,0
2022-12-18T06:11:13.714Z,0
2022-12-18T06:12:13.980Z,0
2022-12-18T06:13:12.937Z,0
2022-12-18T06:14:14.137Z,0
2022-12-18T06:15:13.721Z,0.109
2022-12-18T06:16:13.801Z,0
2022-12-18T06:17:13.483Z,0.109
2022-12-18T06:18:13.195Z,0
2022-12-18T06:19:13.528Z,0
2022-12-18T06:20:14.072Z,0
2022-12-18T06:21:13.963Z,0.219
2022-12-18T06:22:13.210Z,0
2022-12-18T06:23:13.302Z,0
2022-12-18T06:24:13.940Z,0
2022-12-18T06:25:13.765Z,0
2022-12-18T06:26:14.042Z,0
2022-12-18T06:27:14.023Z,13600
2022-12-18T06:28:13.417Z,13600
2022-12-18T06:29:13.575Z,13600
2022-12-18T06:30:14.466Z,13600
2022-12-18T06:31:13.348Z,13600
2022-12-18T06:32:13.803Z,13600
2022-12-18T06:33:14.132Z,0
2022-12-18T06:34:13.427Z,13600
2022-12-18T06:35:14.045Z,13600
2022-12-18T06:36:13.756Z,13600
2022-12-18T06:37:13.948Z,13600
2022-12-18T06:38:13.015Z,13600
2022-12-18T06:39:14.135Z,13600
2022-12-18T06:40:13.682Z,0
2022-12-18T06:41:13.112Z,13600
2022-12-18T06:42:13.213Z,13600
2022-12-18T06:43:13.517Z,13600
2022-12-18T06:44:13.882Z,13600
2022-12-18T06:45:13.299Z,0
2022-12-18T06:46:13.680Z,0
2022-12-18T06:47:13.991Z,13600
2022-12-18T06:48:13.392Z,0
2022-12-18T06:49:13.646Z,0.050
2022-12-18T06:50:13.627Z,0
2022-12-18T06:51:13.955Z,0.050
2022-12-18T06:52:13.209Z,0.109
2022-12-18T06:53:13.493Z,0.280
2022-12-18T06:54:13.891Z,0
2022-12-18T06:55:13.749Z,0.409
2022-12-18T06:56:13.810Z,0.560
2022-12-18T06:57:13.784Z,0.469
2022-12-18T06:58:14.127Z,1.047
2022-12-18T06:59:13.401Z,1.210
2022-12-18T07:00:14.660Z,1.629
2022-12-18T07:01:13.958Z,2.190
2022-12-18T07:02:13.558Z,2.650
2022-12-18T07:03:13.888Z,3.400
2022-12-18T07:04:13.682Z,4.119
2022-12-18T07:05:13.470Z,4.980
2022-12-18T07:06:13.812Z,5.940
2022-12-18T07:07:13.155Z,7.119
2022-12-18T07:08:13.098Z,8.460
2022-12-18T07:09:13.352Z,10
2022-12-18T07:10:14.073Z,11.67
2022-12-18T07:11:13.195Z,13.68
2022-12-18T07:12:13.543Z,15.84
2022-12-18T07:13:13.935Z,18.31
2022-12-18T07:14:13.407Z,21.20
2022-12-18T07:15:13.971Z,24.29
2022-12-18T07:16:20.916Z,28.10
2022-12-18T07:17:14.069Z,32.09
2022-12-18T07:18:13.444Z,36.70
2022-12-18T07:19:13.970Z,42.09
2022-12-18T07:20:13.445Z,47.79
2022-12-18T07:21:13.925Z,53.59
2022-12-18T07:22:13.427Z,59.20
2022-12-18T07:23:13.818Z,65.09
2022-12-18T07:24:13.322Z,70.90
2022-12-18T07:25:14.089Z,77.09
2022-12-18T07:26:27.345Z,83.30
2022-12-18T07:27:13.452Z,90
2022-12-18T07:28:17.331Z,97.90
2022-12-18T07:29:13.405Z,108
2022-12-18T07:30:14.063Z,118
2022-12-18T07:31:13.623Z,130
2022-12-18T07:32:13.618Z,142
2022-12-18T07:33:13.505Z,153.3
2022-12-18T07:34:14.094Z,163.6
2022-12-18T07:35:13.684Z,172.8
2022-12-18T07:36:13.698Z,182.3
2022-12-18T07:37:14.226Z,192
2022-12-18T07:38:13.928Z,203
2022-12-18T07:39:13.562Z,213
2022-12-18T07:40:14.165Z,225
2022-12-18T07:41:13.614Z,237
2022-12-18T07:42:13.877Z,251
2022-12-18T07:43:13.380Z,265
2022-12-18T07:44:14.114Z,279
2022-12-18T07:45:13.591Z,291
2022-12-18T07:46:14.003Z,306
2022-12-18T07:47:13.664Z,324
2022-12-18T07:48:13.993Z,341
2022-12-18T07:49:13.431Z,354
2022-12-18T07:50:14.631Z,370
2022-12-18T07:51:14.114Z,390
2022-12-18T07:52:13.611Z,413
2022-12-18T07:53:13.756Z,434
2022-12-18T07:54:13.119Z,454
2022-12-18T07:55:13.659Z,476
2022-12-18T07:56:28.224Z,499
2022-12-18T07:57:27.325Z,521
2022-12-18T07:58:13.601Z,542
2022-12-18T07:59:13.805Z,559
2022-12-18T08:00:15.129Z,576
2022-12-18T08:01:14.206Z,594
2022-12-18T08:02:14.245Z,614
2022-12-18T08:03:14.344Z,637
2022-12-18T08:04:14.422Z,657
2022-12-18T08:05:14.487Z,678
2022-12-18T08:06:13.757Z,700
2022-12-18T08:07:13.744Z,723
2022-12-18T08:08:14.153Z,750
2022-12-18T08:09:13.833Z,776
2022-12-18T08:10:13.180Z,800
2022-12-18T08:11:13.603Z,825
2022-12-18T08:12:13.925Z,852
2022-12-18T08:13:13.630Z,880
2022-12-18T08:14:14.264Z,912
2022-12-18T08:15:13.865Z,939
2022-12-18T08:16:13.342Z,960
2022-12-18T08:17:14.111Z,1000
2022-12-18T08:18:14.534Z,1030
2022-12-18T08:19:14.212Z,1062
2022-12-18T08:20:13.966Z,1084
2022-12-18T08:21:13.816Z,1105
2022-12-18T08:22:13.510Z,1132
2022-12-18T08:23:14.156Z,1157
2022-12-18T08:24:13.482Z,1178
2022-12-18T08:25:14.355Z,1199
2022-12-18T08:26:13.591Z,1206.
2022-12-18T08:27:28.887Z,1209.
2022-12-18T08:28:14.006Z,1210.
2022-12-18T08:29:17.324Z,1203.
2022-12-18T08:30:13.806Z,1203.
2022-12-18T08:31:13.627Z,1200.
2022-12-18T08:32:13.956Z,1192
2022-12-18T08:33:13.581Z,1160
2022-12-18T08:34:14.202Z,1132
2022-12-18T08:35:17.569Z,1114
2022-12-18T08:36:14.256Z,1101
2022-12-18T08:37:13.821Z,1086
2022-12-18T08:38:13.397Z,1081.
2022-12-18T08:39:14.289Z,1084.
2022-12-18T08:40:13.951Z,1091.
2022-12-18T08:41:13.691Z,1099.
2022-12-18T08:42:14.170Z,1108
2022-12-18T08:43:13.357Z,1124
2022-12-18T08:44:14.124Z,1147
2022-12-18T08:45:13.976Z,1170
2022-12-18T08:46:13.730Z,1210
2022-12-18T08:47:13.447Z,1244
2022-12-18T08:48:17.824Z,1280
2022-12-18T08:49:13.892Z,1330
2022-12-18T08:50:14.308Z,1380
2022-12-18T08:51:14.008Z,1430
2022-12-18T08:52:14.210Z,1500
2022-12-18T08:53:13.768Z,1530
2022-12-18T08:54:13.456Z,1590
2022-12-18T08:55:14.212Z,1652
2022-12-18T08:56:14.220Z,1669
2022-12-18T08:57:13.766Z,1700
2022-12-18T08:58:13.464Z,1786
2022-12-18T08:59:19.381Z,1810
2022-12-18T09:00:14.680Z,1900
2022-12-18T09:01:13.741Z,1948
2022-12-18T09:02:13.263Z,1980
2022-12-18T09:03:14.497Z,2041.
2022-12-18T09:04:14.302Z,2060
2022-12-18T09:05:13.842Z,2090
2022-12-18T09:06:13.916Z,2080.
2022-12-18T09:07:13.651Z,2095
2022-12-18T09:08:13.220Z,2060
2022-12-18T09:09:13.921Z,2000
2022-12-18T09:10:13.868Z,1960
2022-12-18T09:11:13.761Z,1930
2022-12-18T09:12:14.281Z,1880
2022-12-18T09:13:13.854Z,1840
2022-12-18T09:14:13.364Z,1820
2022-12-18T09:15:14.322Z,1802
2022-12-18T09:16:13.715Z,1770
2022-12-18T09:17:14.082Z,1740
2022-12-18T09:18:13.790Z,1728.
2022-12-18T09:19:14.411Z,1740
2022-12-18T09:20:14.270Z,1800
2022-12-18T09:21:14.202Z,1850
2022-12-18T09:22:13.718Z,1910
2022-12-18T09:23:18.511Z,1980
2022-12-18T09:24:14.124Z,2080
2022-12-18T09:25:13.716Z,2140
2022-12-18T09:26:13.292Z,2200
2022-12-18T09:27:13.908Z,2270
2022-12-18T09:28:13.912Z,2360
2022-12-18T09:29:13.428Z,2400
2022-12-18T09:30:14.665Z,2600
2022-12-18T09:31:14.373Z,2650
2022-12-18T09:32:18.970Z,2720
2022-12-18T09:33:13.775Z,2760
2022-12-18T09:34:14.312Z,2779.
2022-12-18T09:35:14.169Z,2786
2022-12-18T09:36:13.483Z,2787
2022-12-18T09:37:14.151Z,2796
2022-12-18T09:38:13.667Z,2828
2022-12-18T09:39:13.585Z,2839
2022-12-18T09:40:13.968Z,2830
2022-12-18T09:41:13.505Z,2870
2022-12-18T09:42:14.138Z,2870
2022-12-18T09:43:28.121Z,2891
2022-12-18T09:44:13.752Z,2910
2022-12-18T09:45:14.180Z,2936.
2022-12-18T09:46:13.899Z,2946
2022-12-18T09:47:13.655Z,2970
2022-12-18T09:48:13.532Z,3001
2022-12-18T09:49:14.351Z,3030
2022-12-18T09:50:17.283Z,3080
2022-12-18T09:51:14.157Z,3130
2022-12-18T09:52:13.751Z,3160
2022-12-18T09:53:13.415Z,3183.
2022-12-18T09:54:13.835Z,3184.
2022-12-18T09:55:13.725Z,3176
2022-12-18T09:56:13.584Z,3161
2022-12-18T09:57:14.276Z,3155
2022-12-18T09:58:14.114Z,3167.
2022-12-18T09:59:13.733Z,3177
2022-12-18T10:00:14.158Z,3203
2022-12-18T10:01:14.876Z,3240
2022-12-18T10:02:14.570Z,3280
2022-12-18T10:03:13.417Z,3320
2022-12-18T10:04:14.778Z,3347
2022-12-18T10:05:13.674Z,3362
2022-12-18T10:06:14.241Z,3352
2022-12-18T10:07:13.832Z,3335
2022-12-18T10:08:13.085Z,3300
2022-12-18T10:09:13.393Z,3280
2022-12-18T10:10:13.994Z,3273
2022-12-18T10:11:13.525Z,3258.
2022-12-18T10:12:14.286Z,3260
2022-12-18T10:13:14.050Z,3289
2022-12-18T10:14:13.551Z,3315
2022-12-18T10:15:14.612Z,3323
2022-12-18T10:16:14.422Z,3322.
2022-12-18T10:17:14.416Z,3307
2022-12-18T10:18:17.410Z,3286
2022-12-18T10:19:14.606Z,3296
2022-12-18T10:20:13.786Z,3321
2022-12-18T10:21:13.709Z,3350
2022-12-18T10:22:13.161Z,3363
2022-12-18T10:23:14.086Z,3360
2022-12-18T10:24:13.989Z,3358
2022-12-18T10:25:14.407Z,3330
2022-12-18T10:26:13.801Z,3326
2022-12-18T10:27:14.444Z,3330
2022-12-18T10:28:14.139Z,3380
2022-12-18T10:29:13.739Z,3410
2022-12-18T10:30:14.692Z,3430
2022-12-18T10:31:14.334Z,3480
2022-12-18T10:32:14.225Z,3519
2022-12-18T10:33:13.601Z,3551
2022-12-18T10:34:13.241Z,3574
2022-12-18T10:35:14.154Z,3600
2022-12-18T10:36:13.419Z,3640
2022-12-18T10:37:14.150Z,3690
2022-12-18T10:38:13.652Z,3750
2022-12-18T10:39:13.694Z,3830
2022-12-18T10:40:19.851Z,3890
2022-12-18T10:41:13.710Z,3910
2022-12-18T10:42:13.759Z,3954.
2022-12-18T10:43:14.275Z,3963
2022-12-18T10:44:14.176Z,3959.
2022-12-18T10:45:14.049Z,3957
2022-12-18T10:46:13.761Z,3968.
2022-12-18T10:47:13.811Z,3964.
2022-12-18T10:48:14.122Z,3974
2022-12-18T10:49:14.054Z,4010
2022-12-18T10:50:13.770Z,4060
2022-12-18T10:51:14.075Z,4110
2022-12-18T10:52:13.275Z,4145
2022-12-18T10:53:14.055Z,4155
2022-12-18T10:54:13.789Z,4158
2022-12-18T10:55:13.753Z,4157.
2022-12-18T10:56:13.903Z,4173
2022-12-18T10:57:13.560Z,4188
2022-12-18T10:58:14.401Z,4195.
2022-12-18T10:59:14.454Z,4210
2022-12-18T11:00:14.913Z,4224.
2022-12-18T11:01:13.936Z,4219.
2022-12-18T11:02:13.968Z,4233
2022-12-18T11:03:14.277Z,4251
2022-12-18T11:04:14.099Z,4262.
2022-12-18T11:05:13.883Z,4260
2022-12-18T11:06:13.656Z,4252
2022-12-18T11:07:14.145Z,4249
2022-12-18T11:08:13.782Z,4278
2022-12-18T11:09:15.594Z,4306
2022-12-18T11:10:14.083Z,4321.
2022-12-18T11:11:13.565Z,4319
2022-12-18T11:12:14.363Z,4312.
2022-12-18T11:13:13.872Z,4304
2022-12-18T11:14:13.102Z,4286.
2022-12-18T11:15:13.958Z,4286
2022-12-18T11:16:13.511Z,4285
2022-12-18T11:17:26.749Z,4296
2022-12-18T11:18:13.795Z,4308
2022-12-18T11:19:13.475Z,4324
2022-12-18T11:20:14.091Z,4347
2022-12-18T11:21:13.917Z,4361
2022-12-18T11:22:13.497Z,4363
2022-12-18T11:23:13.858Z,4330
2022-12-18T11:24:13.764Z,4299
2022-12-18T11:25:34.597Z,4270
2022-12-18T11:26:13.983Z,4220
2022-12-18T11:27:13.975Z,4160
2022-12-18T11:28:13.799Z,4110
2022-12-18T11:29:14.133Z,4040
2022-12-18T11:30:13.836Z,3980
2022-12-18T11:31:13.485Z,3930
2022-12-18T11:32:14.064Z,3898
2022-12-18T11:33:13.487Z,3887.
2022-12-18T11:34:29.246Z,3892
2022-12-18T11:35:13.659Z,3911
2022-12-18T11:36:13.134Z,3935
2022-12-18T11:37:13.787Z,3965
2022-12-18T11:38:13.669Z,3990
2022-12-18T11:39:14.431Z,4014
2022-12-18T11:40:13.886Z,4033
2022-12-18T11:41:13.295Z,4051
2022-12-18T11:42:13.761Z,4062
2022-12-18T11:43:14.185Z,4075
2022-12-18T11:44:14.051Z,4082
2022-12-18T11:45:13.973Z,4085.
2022-12-18T11:46:19.144Z,4079
2022-12-18T11:47:13.599Z,4082
2022-12-18T11:48:18.985Z,4094
2022-12-18T11:49:13.879Z,4104.
2022-12-18T11:50:13.503Z,4110.
2022-12-18T11:51:14.042Z,4103
2022-12-18T11:52:18.464Z,4085
2022-12-18T11:53:14.047Z,4040
2022-12-18T11:54:13.532Z,3970
2022-12-18T11:55:14.224Z,3880
2022-12-18T11:56:13.875Z,3790
2022-12-18T11:57:14.182Z,3600
2022-12-18T11:58:14.091Z,3500
2022-12-18T11:59:13.141Z,3490
2022-12-18T12:00:19.373Z,3420
2022-12-18T12:01:13.649Z,3360
2022-12-18T12:02:13.579Z,3336
2022-12-18T12:03:13.557Z,3327.
2022-12-18T12:04:13.525Z,3330
2022-12-18T12:05:14.283Z,3345
2022-12-18T12:06:13.614Z,3361
2022-12-18T12:07:14.618Z,3381
2022-12-18T12:08:12.751Z,3398
2022-12-18T12:09:14.290Z,3420
2022-12-18T12:10:13.857Z,3450
2022-12-18T12:11:13.106Z,3491
2022-12-18T12:12:13.553Z,3512
2022-12-18T12:13:13.711Z,3517.
2022-12-18T12:14:13.913Z,3507
2022-12-18T12:15:13.444Z,3478
2022-12-18T12:16:13.870Z,3440
2022-12-18T12:17:13.606Z,3400
2022-12-18T12:18:13.971Z,3369
2022-12-18T12:19:13.412Z,3346
2022-12-18T12:20:14.187Z,3324
2022-12-18T12:21:14.721Z,3303
2022-12-18T12:22:14.116Z,3290.
2022-12-18T12:23:13.675Z,3283.
2022-12-18T12:24:14.436Z,3275.
2022-12-18T12:25:14.171Z,3263
2022-12-18T12:26:32.607Z,3249
2022-12-18T12:27:13.574Z,3234
2022-12-18T12:28:13.500Z,3217
2022-12-18T12:29:19.419Z,3203
2022-12-18T12:30:32.416Z,3188
2022-12-18T12:31:13.800Z,3169
2022-12-18T12:32:13.397Z,3150
2022-12-18T12:33:14.265Z,3127
2022-12-18T12:34:13.522Z,3107
2022-12-18T12:35:14.574Z,3094.
2022-12-18T12:36:13.802Z,3088.
2022-12-18T12:37:13.314Z,3093.
2022-12-18T12:38:13.834Z,3096.
2022-12-18T12:39:13.551Z,3099.
2022-12-18T12:40:48.452Z,3099.
2022-12-18T12:41:13.527Z,3091
2022-12-18T12:42:14.241Z,3080
2022-12-18T12:43:13.732Z,3068.
2022-12-18T12:44:13.570Z,3065.
2022-12-18T12:45:14.422Z,3074
2022-12-18T12:46:14.347Z,3098
2022-12-18T12:47:13.262Z,3120
2022-12-18T12:48:14.289Z,3170
2022-12-18T12:49:13.536Z,3230
2022-12-18T12:50:14.294Z,3310
2022-12-18T12:51:14.201Z,3380
2022-12-18T12:52:13.726Z,3460
2022-12-18T12:53:13.114Z,3530
2022-12-18T12:54:14.106Z,3610
2022-12-18T12:55:15.007Z,3680
2022-12-18T12:56:13.596Z,3760
2022-12-18T12:57:13.229Z,3830
2022-12-18T12:58:14.269Z,3886
2022-12-18T12:59:14.234Z,3900
2022-12-18T13:00:14.776Z,3870
2022-12-18T13:01:17.278Z,3830
2022-12-18T13:02:14.103Z,3780
2022-12-18T13:03:14.141Z,3710
2022-12-18T13:04:14.018Z,3640
2022-12-18T13:05:13.862Z,3570
2022-12-18T13:06:13.252Z,3510
2022-12-18T13:07:13.191Z,3440
2022-12-18T13:08:14.052Z,3370
2022-12-18T13:09:13.811Z,3300
2022-12-18T13:10:13.541Z,3240
2022-12-18T13:11:14.179Z,3180
2022-12-18T13:12:13.974Z,3120
2022-12-18T13:13:16.572Z,3060
2022-12-18T13:14:14.264Z,3020
2022-12-18T13:15:14.514Z,2980
2022-12-18T13:16:13.356Z,2940
2022-12-18T13:17:13.426Z,2880
2022-12-18T13:18:13.459Z,2810
2022-12-18T13:19:13.880Z,2730
2022-12-18T13:20:14.037Z,2650
2022-12-18T13:21:13.951Z,2560
2022-12-18T13:22:13.595Z,2480
2022-12-18T13:23:14.304Z,2410
2022-12-18T13:24:14.483Z,2360
2022-12-18T13:25:14.364Z,2310
2022-12-18T13:26:14.092Z,2279
2022-12-18T13:27:14.287Z,2266.
2022-12-18T13:28:14.437Z,2279
2022-12-18T13:29:14.181Z,2300
2022-12-18T13:30:14.435Z,2350
2022-12-18T13:31:13.856Z,2390
2022-12-18T13:32:18.362Z,2426
2022-12-18T13:33:13.642Z,2450
2022-12-18T13:34:26.179Z,2462.
2022-12-18T13:35:14.528Z,2466.